Aérodrome :
LOGIN :

S'inscrire | Disclaimer

   EN    FR    IT 

 










Légende :    VFR   VFR Marginal   IFR   IFR Intensif   IFR Très Intensif
Visi : 
Plafond : 
>= 8 km
>= 3000ft
5 à 8 km
1000 à 3000 ft
1500m à 5 km
500 à 1000 ft
800 à 1500m
200 à 500 ft
< 800m
< 200 ft
Symboles :   Orages  Brouillard  Fortes neiges  Fortes précipitations  Vent > 20 kt
SIGMETs :   Divers  Orages  Givrage  Turbulence  Onde Orograph.  Cendres Volcan.






- Altitude de l'aérodrome : 2096 ft
- Code IATA : AUR


LFLW - Aurillac

DERNIER METAR :
  • 241200Z AUTO 23008KT 180V250 9999 BKN008 BKN013 OVC025 04/02 Q1006

METARs EXPIRÉS :
  • 241130Z AUTO 22004KT 180V260 6000 -RA BKN007 BKN012 OVC017 03/02 Q1006
  • 241100Z AUTO 22005KT 170V270 9999 BKN008 OVC014 03/01 Q1006
  • 241030Z AUTO 20005KT 150V250 9999 BKN006 OVC010 03/02 Q1005
  • 241000Z AUTO 22006KT 170V250 7000 OVC005 02/01 Q1005
  • 240930Z AUTO 23006KT 180V270 9999 OVC005 01/01 Q1005
  • 240900Z AUTO 22006KT 9000 -RA BKN006 BKN022 OVC030 01/00 Q1004
  • 240830Z AUTO 22006KT 180V250 9999 -RA BKN005 BKN012 OVC033 01/01 Q1004
  • 240800Z AUTO 20004KT 170V240 7000 -DZ BKN005 OVC012 01/01 Q1004
  • 240730Z AUTO 20005KT 140V240 9999 BKN006 BKN014 BKN028 01/01 Q1003

Prévision TAF périmée.



MET'MAP, la Météo Aéronautique d'un coup d'oeil ! - Copyright ORBIFLY Décembre 2007 - Disclaimer

ORBIFLY MET'MAP TEAM :

Programmation & Développement : Alexandra Zaïnal
Sur une idée originale de : Baudouin d'Aumeries
Soutien technique & logistique : Manuel Goepfert
Assistance : Marc-Olivier Méhu




SOURCES & CREDITS :

   NOAA